Time;durP1;ratioP1;P1;durP2;ratioP2;P2;SDS_P1;SDS_P2;PMS_P1;PMS_P2;Temp;Humidity;BMP_temperature;BMP_pressure;BME280_temperature;BME280_humidity;BME280_pressure;Samples;Min_cycle;Max_cycle;Signal;HPM_P1;HPM_P2
2021/12/03 00:04:46;;;;;;;2.72;1.10;;;1.70;99.90;;;;;;10080210;28;20065;-87
2021/12/03 00:09:47;;;;;;;3.38;1.02;;;1.70;99.90;;;;;;10088016;28;20089;-88
2021/12/03 00:14:49;;;;;;;3.47;0.90;;;1.70;99.90;;;;;;10083465;28;20053;-88
2021/12/03 00:19:51;;;;;;;3.17;0.80;;;1.60;99.90;;;;;;10073727;28;20086;-88
2021/12/03 00:24:53;;;;;;;2.30;0.88;;;1.60;99.90;;;;;;10074259;28;20515;-88
2021/12/03 00:29:54;;;;;;;1.70;0.75;;;1.60;99.90;;;;;;10053712;29;20062;-87
2021/12/03 00:34:56;;;;;;;3.40;0.88;;;1.50;99.90;;;;;;10071577;28;20053;-87
2021/12/03 00:39:58;;;;;;;2.92;0.85;;;1.50;99.90;;;;;;10062014;28;20054;-87
2021/12/03 00:45:01;;;;;;;3.05;1.00;;;1.50;99.90;;;;;;10063706;28;20049;-87
2021/12/03 00:50:05;;;;;;;4.10;0.90;;;1.40;99.90;;;;;;10077576;28;20079;-87
2021/12/03 00:55:08;;;;;;;3.60;1.10;;;1.30;99.90;;;;;;10075235;28;20092;-88
2021/12/03 01:00:15;;;;;;;2.50;1.00;;;1.30;99.90;;;;;;10082397;28;20076;-88
2021/12/03 01:05:17;;;;;;;2.40;0.82;;;1.20;99.90;;;;;;10050816;29;20064;-87
2021/12/03 01:10:19;;;;;;;3.72;0.90;;;1.20;99.90;;;;;;10065494;28;20052;-87
2021/12/03 01:15:24;;;;;;;3.17;0.85;;;1.10;99.90;;;;;;10105558;28;20053;-88
2021/12/03 01:20:27;;;;;;;1.67;0.95;;;1.10;99.90;;;;;;10099889;28;20132;-88
2021/12/03 01:25:31;;;;;;;3.25;1.08;;;1.00;99.90;;;;;;10086305;28;20050;-89
2021/12/03 01:30:33;;;;;;;2.42;1.02;;;0.90;99.90;;;;;;10087092;28;20271;-88
2021/12/03 01:35:37;;;;;;;2.60;1.10;;;0.80;99.90;;;;;;10086945;28;20056;-87
2021/12/03 01:40:40;;;;;;;2.95;1.17;;;0.80;99.90;;;;;;10093421;29;20087;-88
2021/12/03 01:45:42;;;;;;;4.13;1.35;;;0.70;99.90;;;;;;10093006;28;20068;-88
2021/12/03 01:50:45;;;;;;;4.47;1.38;;;0.70;99.90;;;;;;10104543;28;20054;-88
2021/12/03 01:55:48;;;;;;;4.57;1.10;;;0.60;99.90;;;;;;10094953;28;20057;-88
2021/12/03 02:00:58;;;;;;;5.22;1.60;;;0.50;99.90;;;;;;10111490;28;20139;-87
2021/12/03 02:06:01;;;;;;;4.43;2.05;;;0.40;99.90;;;;;;10044634;28;20053;-86
2021/12/03 02:11:05;;;;;;;3.15;1.33;;;0.40;99.90;;;;;;10063009;28;20464;-87
2021/12/03 02:16:08;;;;;;;3.78;1.52;;;0.30;99.90;;;;;;10047781;28;20057;-86
2021/12/03 02:21:11;;;;;;;4.43;1.35;;;0.20;99.90;;;;;;10051161;28;20099;-86
2021/12/03 02:26:15;;;;;;;4.72;1.48;;;0.10;99.90;;;;;;10066313;28;20040;-86
2021/12/03 02:31:21;;;;;;;4.38;1.42;;;0.00;99.90;;;;;;10080283;28;20572;-86
2021/12/03 02:36:39;;;;;;;4.97;1.58;;;-0.20;99.90;;;;;;10064836;28;20389;-86
2021/12/03 02:41:41;;;;;;;4.70;1.42;;;-0.30;99.90;;;;;;10065357;28;20527;-86
2021/12/03 02:46:43;;;;;;;5.00;2.00;;;-0.40;99.90;;;;;;10059555;28;20060;-86
2021/12/03 02:51:45;;;;;;;4.38;1.55;;;-0.50;99.90;;;;;;10068551;28;20053;-87
2021/12/03 02:56:47;;;;;;;7.60;2.30;;;-0.60;99.90;;;;;;10065418;28;20072;-87
2021/12/03 03:01:49;;;;;;;7.78;2.80;;;-0.70;99.90;;;;;;10084228;28;20069;-86
2021/12/03 03:06:51;;;;;;;8.55;2.38;;;-0.80;99.90;;;;;;10062850;28;20073;-86
2021/12/03 03:11:53;;;;;;;7.65;2.60;;;-0.80;99.90;;;;;;10043267;28;20064;-86
2021/12/03 03:16:55;;;;;;;7.15;2.67;;;-0.90;99.90;;;;;;10062344;28;20059;-86
2021/12/03 03:21:57;;;;;;;7.90;2.30;;;-0.90;99.90;;;;;;10068798;28;20378;-87
2021/12/03 03:27:06;;;;;;;6.25;2.67;;;-0.90;99.90;;;;;;10048028;28;20060;-86
2021/12/03 03:32:09;;;;;;;5.90;2.25;;;-1.00;99.90;;;;;;10061639;28;20053;-87
2021/12/03 03:37:11;;;;;;;9.40;3.33;;;-1.10;99.90;;;;;;10076808;28;20427;-87
2021/12/03 03:42:19;;;;;;;7.53;3.03;;;-1.10;99.90;;;;;;10071022;28;20461;-87
2021/12/03 03:47:21;;;;;;;5.75;2.00;;;-1.10;99.90;;;;;;10079679;28;20976;-87
2021/12/03 03:52:23;;;;;;;7.85;2.40;;;-1.10;99.90;;;;;;10072358;28;20056;-87
2021/12/03 03:57:25;;;;;;;11.18;3.05;;;-1.20;99.90;;;;;;10056035;28;20045;-87
2021/12/03 04:02:27;;;;;;;8.50;2.60;;;-1.30;99.90;;;;;;10067152;28;20051;-87
2021/12/03 04:07:29;;;;;;;10.00;2.72;;;-1.30;99.90;;;;;;10067793;28;20132;-88
2021/12/03 04:13:08;;;;;;;9.30;3.10;;;-1.40;99.90;;;;;;10066469;28;20069;-87
2021/12/03 04:18:10;;;;;;;10.75;4.55;;;-1.40;99.90;;;;;;10066594;28;20132;-87
2021/12/03 04:23:17;;;;;;;8.75;4.00;;;-1.40;99.90;;;;;;10073500;28;20049;-87
2021/12/03 04:28:20;;;;;;;8.88;4.07;;;-1.40;99.90;;;;;;10066513;28;20128;-87
2021/12/03 04:33:31;;;;;;;13.65;4.30;;;-1.40;99.90;;;;;;10077767;28;20039;-86
2021/12/03 04:38:33;;;;;;;14.82;4.80;;;-1.40;99.90;;;;;;10066256;28;20133;-87
2021/12/03 04:43:35;;;;;;;13.63;5.57;;;-1.40;99.90;;;;;;10058336;28;20052;-87
2021/12/03 04:48:37;;;;;;;17.20;5.43;;;-1.40;99.90;;;;;;10055713;29;20045;-88
2021/12/03 04:53:38;;;;;;;17.17;5.25;;;-1.30;99.90;;;;;;10072298;28;20050;-88
2021/12/03 04:58:40;;;;;;;15.18;5.97;;;-1.20;99.90;;;;;;10069110;28;20061;-88
2021/12/03 05:03:42;;;;;;;16.40;6.07;;;-1.00;99.90;;;;;;10077398;28;20049;-88
2021/12/03 05:08:44;;;;;;;14.70;5.45;;;-0.90;99.90;;;;;;10071606;28;20065;-88
2021/12/03 05:13:46;;;;;;;13.45;5.22;;;-0.90;99.90;;;;;;10075770;28;20409;-87
2021/12/03 05:18:48;;;;;;;13.88;5.60;;;-0.70;99.90;;;;;;10068045;28;20045;-87
2021/12/03 05:23:56;;;;;;;15.43;5.63;;;-0.60;99.90;;;;;;10071057;28;20053;-87
2021/12/03 05:28:58;;;;;;;15.00;5.63;;;-0.60;99.90;;;;;;10078430;28;20049;-87
2021/12/03 05:34:00;;;;;;;18.02;6.03;;;-0.50;99.90;;;;;;10072790;28;20049;-87
2021/12/03 05:39:02;;;;;;;12.60;4.30;;;-0.50;99.90;;;;;;10087213;28;20109;-87
2021/12/03 05:44:06;;;;;;;19.05;5.05;;;-0.50;99.90;;;;;;10072748;28;20048;-87
2021/12/03 05:49:08;;;;;;;12.80;4.88;;;-0.40;99.90;;;;;;10075810;28;20143;-87
2021/12/03 05:54:10;;;;;;;10.20;5.05;;;-0.40;99.90;;;;;;10087543;28;20052;-87
2021/12/03 05:59:12;;;;;;;12.18;5.75;;;-0.40;99.90;;;;;;10077388;28;20059;-89
2021/12/03 06:04:15;;;;;;;14.02;5.60;;;-0.40;99.90;;;;;;10068036;28;20060;-88
2021/12/03 06:09:17;;;;;;;11.93;5.13;;;-0.40;99.90;;;;;;10076546;28;20056;-88
2021/12/03 06:14:19;;;;;;;16.42;5.60;;;-0.50;99.90;;;;;;10039598;28;20488;-87
2021/12/03 06:19:21;;;;;;;13.90;4.95;;;-0.50;99.90;;;;;;10052337;28;20087;-87
2021/12/03 06:24:23;;;;;;;14.35;4.80;;;-0.40;99.90;;;;;;10061779;28;20041;-86
2021/12/03 06:29:24;;;;;;;13.98;5.57;;;-0.40;99.90;;;;;;10056007;28;20068;-87
2021/12/03 06:34:26;;;;;;;12.65;5.35;;;-0.40;99.90;;;;;;10079564;28;20060;-86
2021/12/03 06:39:28;;;;;;;9.23;3.92;;;-0.40;99.90;;;;;;10081939;28;20045;-87
2021/12/03 06:44:30;;;;;;;12.38;3.97;;;-0.40;99.90;;;;;;10077528;28;20045;-87
2021/12/03 06:49:33;;;;;;;6.88;3.28;;;-0.40;99.90;;;;;;10070755;28;20045;-87
2021/12/03 06:54:52;;;;;;;11.35;3.33;;;-0.40;99.90;;;;;;10070959;28;20050;-87
2021/12/03 06:59:53;;;;;;;11.02;4.57;;;-0.50;99.90;;;;;;10072175;28;20057;-86
2021/12/03 07:04:55;;;;;;;8.35;3.13;;;-0.50;99.90;;;;;;10065562;28;20056;-87
2021/12/03 07:09:57;;;;;;;5.25;2.70;;;-0.60;99.90;;;;;;10076388;28;20119;-86
2021/12/03 07:14:59;;;;;;;8.55;2.97;;;-0.60;99.90;;;;;;10071956;28;20063;-87
2021/12/03 07:20:02;;;;;;;9.93;3.03;;;-0.60;99.90;;;;;;10089703;28;20076;-88
2021/12/03 07:25:04;;;;;;;8.50;2.53;;;-0.50;99.90;;;;;;10098230;28;20109;-88
2021/12/03 07:30:08;;;;;;;7.57;2.95;;;-0.40;99.90;;;;;;10107074;28;20044;-88
2021/12/03 07:35:11;;;;;;;4.88;2.30;;;-0.40;99.90;;;;;;10080016;28;20060;-88
2021/12/03 07:40:13;;;;;;;10.25;2.80;;;-0.30;99.90;;;;;;10063007;28;20052;-88
2021/12/03 07:45:16;;;;;;;6.72;2.50;;;-0.30;99.90;;;;;;10094293;28;20033;-88
2021/12/03 07:50:18;;;;;;;7.32;2.83;;;-0.20;99.90;;;;;;10108802;28;20121;-88
2021/12/03 07:55:21;;;;;;;6.18;2.40;;;-0.20;99.90;;;;;;10111294;28;20101;-88
2021/12/03 08:00:23;;;;;;;5.72;2.00;;;-0.20;99.90;;;;;;10095819;28;20046;-88
2021/12/03 08:05:45;;;;;;;8.27;3.05;;;-0.20;99.90;;;;;;10114821;28;20148;-88
2021/12/03 08:10:51;;;;;;;6.97;2.45;;;-0.10;99.90;;;;;;10101277;28;20041;-88
2021/12/03 08:15:53;;;;;;;8.43;3.00;;;-0.10;99.90;;;;;;10090900;28;20049;-88
2021/12/03 08:20:55;;;;;;;7.32;2.63;;;-0.10;99.90;;;;;;10079371;28;20050;-88
2021/12/03 08:25:57;;;;;;;11.05;3.42;;;-0.10;99.90;;;;;;10075609;28;20049;-88
2021/12/03 08:30:59;;;;;;;8.68;2.58;;;0.00;99.90;;;;;;10088073;28;20077;-88
2021/12/03 08:36:01;;;;;;;7.95;3.08;;;0.10;99.90;;;;;;10067533;28;20073;-88
2021/12/03 08:41:03;;;;;;;7.65;3.30;;;0.20;99.90;;;;;;10075705;28;20548;-88
2021/12/03 08:46:10;;;;;;;12.10;3.35;;;0.30;99.90;;;;;;10080364;28;20045;-87
2021/12/03 08:57:21;;;;;;;8.07;3.10;;;0.50;99.90;;;;;;10104787;28;20273;-88
2021/12/03 09:02:35;;;;;;;9.02;2.90;;;0.70;99.90;;;;;;10096328;28;20045;-88
2021/12/03 09:07:37;;;;;;;9.60;3.13;;;0.70;99.90;;;;;;10083937;28;20319;-88
2021/12/03 09:12:49;;;;;;;9.68;3.05;;;0.70;99.90;;;;;;10093984;28;20053;-88
2021/12/03 09:18:05;;;;;;;11.25;3.58;;;0.80;99.90;;;;;;10060335;28;20068;-88
2021/12/03 09:28:29;;;;;;;9.75;3.05;;;1.00;99.90;;;;;;10128136;28;20050;-88
2021/12/03 09:33:34;;;;;;;8.50;3.30;;;1.10;99.90;;;;;;10114733;28;20041;-87
2021/12/03 09:38:43;;;;;;;6.90;2.67;;;1.20;99.90;;;;;;10111922;28;20029;-88
2021/12/03 09:44:30;;;;;;;10.73;3.60;;;1.40;99.90;;;;;;10114577;28;20084;-87
2021/12/03 09:49:56;;;;;;;7.63;3.38;;;1.50;99.90;;;;;;10088772;28;20068;-87
2021/12/03 09:55:03;;;;;;;7.13;3.25;;;1.60;99.90;;;;;;10073006;28;20059;-87
2021/12/03 10:00:34;;;;;;;7.38;3.63;;;1.60;99.90;;;;;;10089891;28;20049;-88
2021/12/03 10:12:04;;;;;;;9.38;3.42;;;1.90;99.90;;;;;;10076239;29;20073;-87
2021/12/03 10:22:03;;;;;;;8.02;3.53;;;2.20;99.90;;;;;;10077269;29;20049;-87
2021/12/03 10:38:50;;;;;;;5.93;3.05;;;2.50;99.90;;;;;;10097830;28;20125;-87
2021/12/03 10:49:18;;;;;;;11.77;3.47;;;3.00;99.90;;;;;;10082816;28;20071;-87
2021/12/03 12:33:01;;;;;;;6.97;2.70;;;3.20;99.90;;;;;;10073785;28;20080;-88
2021/12/03 13:21:17;;;;;;;4.35;2.20;;;2.80;99.90;;;;;;10074673;28;20064;-88
2021/12/03 14:52:18;;;;;;;8.10;2.55;;;2.20;99.90;;;;;;10088591;28;20049;-87
2021/12/03 14:57:50;;;;;;;6.47;3.15;;;2.20;99.90;;;;;;10078320;28;20072;-87
2021/12/03 15:03:50;;;;;;;14.32;4.45;;;2.30;99.90;;;;;;10079854;28;20044;-87
2021/12/03 15:09:41;;;;;;;9.07;2.45;;;2.20;99.90;;;;;;10083829;28;20057;-88
2021/12/03 15:15:18;;;;;;;7.22;2.00;;;2.30;99.90;;;;;;10094135;28;20051;-88
2021/12/03 15:36:16;;;;;;;4.03;1.85;;;2.30;99.90;;;;;;10077340;28;20006;-87
2021/12/03 15:57:44;;;;;;;1.95;1.05;;;2.30;99.90;;;;;;10041419;29;20403;-87
2021/12/03 16:08:19;;;;;;;3.65;1.17;;;2.30;99.90;;;;;;10076069;28;20139;-86
2021/12/03 16:50:03;;;;;;;3.17;0.82;;;2.50;99.90;;;;;;10069643;28;20056;-86
2021/12/03 16:55:03;;;;;;;6.13;1.27;;;2.50;99.90;;;;;;10063686;28;20053;-87
2021/12/03 17:05:38;;;;;;;4.45;0.88;;;2.50;99.90;;;;;;10077172;28;20051;-86
2021/12/03 17:59:19;;;;;;;4.72;1.63;;;2.60;99.90;;;;;;10078467;28;20300;-86
2021/12/03 18:04:40;;;;;;;;;;;2.60;99.90;;;;;;10065549;28;20468;-86
2021/12/03 18:52:38;;;;;;;5.85;2.13;;;2.60;99.90;;;;;;10063134;28;20077;-87
2021/12/03 18:57:42;;;;;;;4.57;2.25;;;2.70;99.90;;;;;;10076028;28;20052;-86
2021/12/03 19:02:49;;;;;;;7.53;1.88;;;2.70;99.90;;;;;;10054399;29;21054;-87
2021/12/03 19:08:06;;;;;;;4.65;2.22;;;2.70;99.90;;;;;;10072959;28;20460;-87
2021/12/03 19:13:14;;;;;;;4.10;1.52;;;2.70;99.90;;;;;;10058711;28;20060;-87
2021/12/03 19:18:20;;;;;;;4.57;1.77;;;2.80;99.90;;;;;;10067209;28;20059;-87
2021/12/03 19:23:22;;;;;;;2.72;1.52;;;2.80;99.90;;;;;;10087637;28;20073;-87
2021/12/03 19:28:24;;;;;;;4.32;1.77;;;2.80;99.90;;;;;;10095775;28;20117;-88
2021/12/03 19:33:28;;;;;;;3.38;1.77;;;2.70;99.90;;;;;;10057720;28;20107;-89
2021/12/03 19:38:31;;;;;;;4.53;1.67;;;2.70;99.90;;;;;;10076822;28;20060;-88
2021/12/03 19:43:40;;;;;;;5.35;2.03;;;2.60;99.90;;;;;;10074180;28;20061;-87
2021/12/03 19:48:49;;;;;;;8.10;2.15;;;2.50;99.90;;;;;;10070732;28;20054;-87
2021/12/03 19:58:58;;;;;;;6.47;2.53;;;2.40;99.90;;;;;;10083970;28;20522;-87
2021/12/03 20:04:02;;;;;;;7.35;2.78;;;2.40;99.90;;;;;;10077009;28;20123;-87
2021/12/03 20:09:07;;;;;;;7.05;1.63;;;2.40;99.90;;;;;;10068920;28;20053;-87
2021/12/03 20:14:14;;;;;;;5.60;1.67;;;2.40;99.90;;;;;;10071397;28;20045;-87
2021/12/03 20:19:30;;;;;;;2.95;0.95;;;2.50;99.90;;;;;;10079696;28;20108;-87
2021/12/03 20:29:46;;;;;;;8.70;1.90;;;2.50;99.90;;;;;;10084111;28;20068;-86
2021/12/03 20:34:56;;;;;;;5.78;1.45;;;2.50;99.90;;;;;;10073417;28;20389;-86
2021/12/03 20:40:07;;;;;;;6.50;1.80;;;2.60;99.90;;;;;;10070094;28;20087;-86
2021/12/03 21:11:41;;;;;;;2.97;1.48;;;2.80;99.90;;;;;;10061797;28;20484;-86
2021/12/03 21:21:57;;;;;;;8.57;1.77;;;2.90;99.90;;;;;;10064517;28;20064;-86
2021/12/03 21:27:06;;;;;;;2.95;1.48;;;2.90;99.90;;;;;;10069742;28;20049;-86
2021/12/03 21:32:27;;;;;;;4.22;1.52;;;2.90;99.90;;;;;;10065421;28;20424;-87
2021/12/03 21:42:49;;;;;;;4.55;1.40;;;3.00;99.90;;;;;;10069584;28;20060;-86
2021/12/03 21:47:51;;;;;;;3.72;1.45;;;3.00;99.90;;;;;;10067436;28;20067;-86
2021/12/03 21:52:53;;;;;;;5.72;1.25;;;2.90;99.90;;;;;;10055725;28;20061;-86
2021/12/03 21:57:55;;;;;;;3.88;1.35;;;2.90;99.90;;;;;;10051706;29;20061;-86
2021/12/03 22:02:57;;;;;;;5.20;1.52;;;2.90;99.90;;;;;;10072524;28;20052;-85
2021/12/03 22:07:59;;;;;;;7.65;1.80;;;3.00;99.90;;;;;;10062981;28;20680;-86
2021/12/03 22:13:01;;;;;;;5.65;1.63;;;3.00;99.90;;;;;;10053815;28;20056;-86
2021/12/03 22:18:03;;;;;;;3.90;1.70;;;3.00;99.90;;;;;;10043041;28;20485;-87
2021/12/03 22:23:05;;;;;;;5.97;1.48;;;3.00;99.90;;;;;;10066793;28;20078;-87
2021/12/03 22:28:06;;;;;;;3.63;1.77;;;3.10;99.90;;;;;;10059924;28;20053;-85
2021/12/03 22:33:13;;;;;;;3.63;1.38;;;3.10;99.90;;;;;;10064918;28;20061;-85
2021/12/03 22:38:16;;;;;;;3.03;1.33;;;3.10;99.90;;;;;;10065031;28;20053;-85
2021/12/03 22:43:20;;;;;;;4.05;1.30;;;3.10;99.90;;;;;;10058524;28;20294;-85
2021/12/03 22:53:30;;;;;;;3.08;1.48;;;3.10;99.90;;;;;;10064292;28;20576;-85
2021/12/03 22:58:43;;;;;;;3.35;1.30;;;3.10;99.90;;;;;;10054755;28;20129;-85
2021/12/03 23:03:46;;;;;;;4.60;1.20;;;3.10;99.90;;;;;;10047090;28;20064;-86
2021/12/03 23:08:48;;;;;;;2.63;1.15;;;3.10;99.90;;;;;;10062117;28;20500;-86
2021/12/03 23:13:50;;;;;;;4.22;1.38;;;3.10;99.90;;;;;;10057217;28;20058;-86
2021/12/03 23:18:52;;;;;;;3.70;1.13;;;3.10;99.90;;;;;;10060417;28;20063;-86
2021/12/03 23:23:54;;;;;;;7.20;3.10;;;3.10;99.90;;;;;;10044307;28;20551;-86
2021/12/03 23:28:55;;;;;;;5.57;0.95;;;3.10;99.90;;;;;;10053947;28;20061;-85
2021/12/03 23:33:57;;;;;;;5.13;1.30;;;3.10;99.90;;;;;;10059261;28;20054;-86
2021/12/03 23:38:59;;;;;;;7.97;1.90;;;3.10;99.90;;;;;;10056000;28;20058;-85
2021/12/03 23:44:01;;;;;;;4.35;1.15;;;3.00;99.90;;;;;;10069886;28;20108;-86
2021/12/03 23:49:04;;;;;;;3.50;1.60;;;2.90;99.90;;;;;;10040109;28;20107;-86
2021/12/03 23:54:06;;;;;;;3.88;1.45;;;2.90;99.90;;;;;;10068824;28;20103;-86
2021/12/03 23:59:08;;;;;;;4.93;1.60;;;2.90;99.90;;;;;;10053742;28;20065;-86
